Time;durP1;ratioP1;P1;durP2;ratioP2;P2;SDS_P1;SDS_P2;PMS_P1;PMS_P2;Temp;Humidity;BMP_temperature;BMP_pressure;BME280_temperature;BME280_humidity;BME280_pressure;Samples;Min_cycle;Max_cycle;Signal;HPM_P1;HPM_P2
2021/08/16 00:01:35;;;;;;;12.07;4.53;;;21.10;99.90;;;;;;5068413;28;20028;-68
2021/08/16 00:04:00;;;;;;;10.15;4.40;;;21.10;99.90;;;;;;5068459;28;20028;-69
2021/08/16 00:06:26;;;;;;;11.32;4.65;;;21.10;99.90;;;;;;5068440;28;20024;-68
2021/08/16 00:08:52;;;;;;;10.23;4.90;;;21.00;99.90;;;;;;5067050;28;20037;-68
2021/08/16 00:11:17;;;;;;;14.40;4.75;;;21.00;99.90;;;;;;5068247;28;20052;-69
2021/08/16 00:13:43;;;;;;;10.30;5.18;;;21.00;99.90;;;;;;5068339;28;20028;-68
2021/08/16 00:16:09;;;;;;;11.93;5.10;;;21.00;99.90;;;;;;5068077;28;20049;-67
2021/08/16 00:18:34;;;;;;;8.15;4.07;;;21.00;99.90;;;;;;5068108;28;20036;-68
2021/08/16 00:21:01;;;;;;;11.82;4.32;;;21.00;99.90;;;;;;5068126;28;20029;-68
2021/08/16 00:23:26;;;;;;;11.30;5.78;;;21.00;99.90;;;;;;5067978;28;20044;-68
2021/08/16 00:25:52;;;;;;;9.23;4.80;;;21.10;99.90;;;;;;5068176;28;20475;-68
2021/08/16 00:28:18;;;;;;;13.98;4.88;;;21.10;99.90;;;;;;5067801;28;20473;-68
2021/08/16 00:30:44;;;;;;;10.30;4.55;;;21.10;99.90;;;;;;5047837;28;20029;-68
2021/08/16 00:33:09;;;;;;;9.40;4.70;;;21.10;99.90;;;;;;5049184;28;20073;-68
2021/08/16 00:35:35;;;;;;;7.93;4.18;;;21.20;99.90;;;;;;5046676;28;20045;-68
2021/08/16 00:38:01;;;;;;;14.90;4.20;;;21.20;99.90;;;;;;5047696;28;20472;-68
2021/08/16 00:40:27;;;;;;;11.88;4.70;;;21.20;99.90;;;;;;5037634;28;20532;-67
2021/08/16 00:42:52;;;;;;;12.75;4.88;;;21.20;99.90;;;;;;5034691;28;20041;-68
2021/08/16 00:45:18;;;;;;;10.55;4.75;;;21.10;99.90;;;;;;5034457;28;20029;-68
2021/08/16 00:47:44;;;;;;;8.25;3.90;;;21.10;99.90;;;;;;5034375;28;20398;-68
2021/08/16 00:50:12;;;;;;;12.65;4.13;;;21.10;99.90;;;;;;5034530;28;20164;-68
2021/08/16 00:52:39;;;;;;;9.13;4.63;;;21.10;99.90;;;;;;5034285;28;20108;-68
2021/08/16 00:55:05;;;;;;;8.60;3.75;;;21.10;99.90;;;;;;5034438;28;20030;-68
2021/08/16 00:57:32;;;;;;;8.57;3.75;;;21.10;99.90;;;;;;5034353;28;20029;-68
2021/08/16 01:00:01;;;;;;;12.20;4.63;;;21.00;99.90;;;;;;5034249;28;20017;-68
2021/08/16 01:02:27;;;;;;;11.10;5.07;;;21.10;99.90;;;;;;5034115;28;20108;-68
2021/08/16 01:04:54;;;;;;;10.15;4.05;;;21.10;99.90;;;;;;5034241;28;20155;-67
2021/08/16 01:07:20;;;;;;;11.60;4.38;;;21.10;99.90;;;;;;5032851;28;20580;-68
2021/08/16 01:09:45;;;;;;;9.25;3.85;;;21.10;99.90;;;;;;5034110;28;20152;-67
2021/08/16 01:12:11;;;;;;;8.25;3.67;;;21.10;99.90;;;;;;5033969;28;20029;-68
2021/08/16 01:14:37;;;;;;;10.98;4.10;;;21.00;99.90;;;;;;5034067;28;20458;-68
2021/08/16 01:17:03;;;;;;;7.78;3.55;;;21.00;99.90;;;;;;5033879;28;20040;-68
2021/08/16 01:19:28;;;;;;;14.60;4.38;;;20.90;99.90;;;;;;5050244;28;20030;-66
2021/08/16 01:21:54;;;;;;;9.02;3.80;;;20.90;99.90;;;;;;5033713;28;20448;-68
2021/08/16 01:24:21;;;;;;;8.75;3.40;;;20.90;99.90;;;;;;5033914;28;20076;-68
2021/08/16 01:26:47;;;;;;;8.18;3.58;;;20.90;99.90;;;;;;5037215;28;20039;-68
2021/08/16 01:29:21;;;;;;;6.18;3.10;;;20.80;99.90;;;;;;5052080;28;20494;-68
2021/08/16 01:31:47;;;;;;;6.07;3.45;;;20.90;99.90;;;;;;5033705;28;20025;-68
2021/08/16 01:34:13;;;;;;;5.55;2.70;;;20.80;99.90;;;;;;5048901;28;20040;-68
2021/08/16 01:36:41;;;;;;;4.47;3.22;;;20.80;99.90;;;;;;5048211;28;20409;-69
2021/08/16 01:39:08;;;;;;;4.75;3.30;;;20.80;99.90;;;;;;5051305;28;20473;-67
2021/08/16 01:41:35;;;;;;;7.50;2.83;;;20.70;99.90;;;;;;5043103;28;20102;-68
2021/08/16 01:44:00;;;;;;;6.47;2.80;;;20.70;99.90;;;;;;5045830;28;20028;-68
2021/08/16 01:46:26;;;;;;;6.05;2.83;;;20.70;99.90;;;;;;5036334;28;20041;-68
2021/08/16 01:48:53;;;;;;;7.22;3.72;;;20.70;99.90;;;;;;5033286;28;20033;-68
2021/08/16 01:51:18;;;;;;;5.28;3.35;;;20.70;99.90;;;;;;5047485;28;20512;-68
2021/08/16 01:53:44;;;;;;;10.02;3.92;;;20.60;99.90;;;;;;5033179;28;20036;-69
2021/08/16 01:56:10;;;;;;;13.82;3.50;;;20.60;99.90;;;;;;5033235;28;20064;-69
2021/08/16 01:58:35;;;;;;;7.80;3.22;;;20.60;99.90;;;;;;5033154;28;20030;-68
2021/08/16 02:01:01;;;;;;;8.82;3.10;;;20.60;99.90;;;;;;5032944;28;20061;-68
2021/08/16 02:03:27;;;;;;;8.23;3.75;;;20.60;99.90;;;;;;5032995;28;20030;-67
2021/08/16 02:05:53;;;;;;;8.48;2.97;;;20.60;99.90;;;;;;5033083;28;20032;-68
2021/08/16 02:08:18;;;;;;;5.80;2.80;;;20.60;99.90;;;;;;5048153;28;20045;-69
2021/08/16 02:10:44;;;;;;;5.47;3.20;;;20.50;99.90;;;;;;5032757;28;20021;-70
2021/08/16 02:13:11;;;;;;;8.13;3.50;;;20.50;99.90;;;;;;5032835;28;20042;-69
2021/08/16 02:15:40;;;;;;;7.40;3.47;;;20.50;99.90;;;;;;5032889;28;20019;-69
2021/08/16 02:18:06;;;;;;;10.48;4.05;;;20.50;99.90;;;;;;5032811;28;20033;-69
2021/08/16 02:20:33;;;;;;;8.57;3.50;;;20.50;99.90;;;;;;5033186;28;20045;-69
2021/08/16 02:22:59;;;;;;;6.90;3.90;;;20.50;99.90;;;;;;5032712;28;20029;-70
2021/08/16 02:25:24;;;;;;;6.63;3.63;;;20.60;99.90;;;;;;5032022;28;20033;-68
2021/08/16 02:27:53;;;;;;;6.95;3.42;;;20.60;99.90;;;;;;5032281;28;20036;-68
2021/08/16 02:30:19;;;;;;;7.28;4.00;;;20.60;99.90;;;;;;5032108;28;20021;-69
2021/08/16 02:32:46;;;;;;;6.82;3.50;;;20.60;99.90;;;;;;5031872;28;20045;-69
2021/08/16 02:35:13;;;;;;;6.93;2.90;;;20.60;99.90;;;;;;5030699;28;20022;-70
2021/08/16 02:37:39;;;;;;;7.32;3.25;;;20.60;99.90;;;;;;5047461;28;20541;-70
2021/08/16 02:40:06;;;;;;;6.25;3.00;;;20.60;99.90;;;;;;5032070;28;20041;-69
2021/08/16 02:54:34;;;;;;;11.65;3.75;;;20.50;99.90;;;;;;5107882;27;20429;-69
2021/08/16 02:57:00;;;;;;;11.15;3.63;;;20.70;99.90;;;;;;5108001;28;20032;-70
2021/08/16 02:59:26;;;;;;;6.78;2.75;;;20.70;99.90;;;;;;5107827;28;20036;-71
2021/08/16 03:01:51;;;;;;;7.10;3.88;;;20.70;99.90;;;;;;5107842;28;20027;-70
2021/08/16 03:04:17;;;;;;;6.13;4.00;;;20.60;99.90;;;;;;5107722;28;20028;-68
2021/08/16 03:06:43;;;;;;;9.82;4.25;;;20.50;99.90;;;;;;5107537;28;20031;-68
2021/08/16 03:09:08;;;;;;;10.20;4.03;;;20.40;99.90;;;;;;5107775;28;20084;-68
2021/08/16 03:11:34;;;;;;;7.20;3.60;;;20.30;99.90;;;;;;5107662;28;20036;-68
2021/08/16 03:13:59;;;;;;;12.52;4.10;;;20.30;99.90;;;;;;5107542;28;20028;-68
2021/08/16 03:16:25;;;;;;;10.25;4.30;;;20.30;99.90;;;;;;5089049;28;20034;-68
2021/08/16 03:18:51;;;;;;;5.95;3.65;;;20.30;99.90;;;;;;5107443;28;20051;-68
2021/08/16 03:21:16;;;;;;;8.80;4.15;;;20.30;99.90;;;;;;5107410;28;20412;-68
2021/08/16 03:23:42;;;;;;;5.38;3.35;;;20.30;99.90;;;;;;5107352;28;20090;-68
2021/08/16 03:26:08;;;;;;;8.73;3.60;;;20.20;99.90;;;;;;5107295;28;20429;-68
2021/08/16 03:28:33;;;;;;;7.25;3.20;;;20.20;99.90;;;;;;5107210;28;20105;-67
2021/08/16 03:30:59;;;;;;;6.32;3.55;;;20.20;99.90;;;;;;5107210;28;20020;-68
2021/08/16 03:33:25;;;;;;;11.10;3.60;;;20.20;99.90;;;;;;5107164;28;20110;-67
2021/08/16 03:35:51;;;;;;;11.32;4.20;;;20.30;99.90;;;;;;5107306;28;20463;-69
2021/08/16 03:38:16;;;;;;;9.43;4.10;;;20.30;99.90;;;;;;5107272;28;20437;-70
2021/08/16 03:40:42;;;;;;;12.52;4.07;;;20.20;99.90;;;;;;5107076;28;20046;-70
2021/08/16 03:43:10;;;;;;;11.95;4.13;;;20.20;99.90;;;;;;5088649;28;20047;-70
2021/08/16 03:45:35;;;;;;;5.65;3.00;;;20.10;99.90;;;;;;5106760;28;20148;-69
2021/08/16 03:48:01;;;;;;;11.02;3.25;;;20.20;99.90;;;;;;5106951;28;20496;-70
2021/08/16 03:50:26;;;;;;;6.43;3.60;;;20.20;99.90;;;;;;5106954;28;20668;-70
2021/08/16 03:52:52;;;;;;;7.70;3.25;;;20.10;99.90;;;;;;5113262;28;20499;-70
2021/08/16 03:55:18;;;;;;;7.78;3.25;;;20.00;99.90;;;;;;5114833;28;20034;-70
2021/08/16 03:57:43;;;;;;;6.60;3.33;;;20.00;99.90;;;;;;5113519;28;20033;-70
2021/08/16 04:00:11;;;;;;;27.73;4.45;;;20.00;99.90;;;;;;5095176;28;20092;-70
2021/08/16 04:02:41;;;;;;;6.43;3.03;;;19.90;99.90;;;;;;5113140;28;20039;-70
2021/08/16 04:05:08;;;;;;;7.30;3.35;;;19.90;99.90;;;;;;5113506;28;20376;-70
2021/08/16 04:07:34;;;;;;;9.80;4.05;;;19.90;99.90;;;;;;5113257;28;20051;-70
2021/08/16 04:10:00;;;;;;;6.38;4.13;;;19.90;99.90;;;;;;5113569;28;20097;-70
2021/08/16 04:12:25;;;;;;;11.68;3.38;;;20.00;99.90;;;;;;5113273;28;20479;-69
2021/08/16 04:14:52;;;;;;;11.15;3.47;;;19.90;99.90;;;;;;5113052;28;20030;-71
2021/08/16 04:17:18;;;;;;;5.20;2.83;;;20.00;99.90;;;;;;5113205;28;20044;-69
2021/08/16 04:19:44;;;;;;;11.20;2.67;;;20.00;99.90;;;;;;5113220;28;20031;-67
2021/08/16 04:22:09;;;;;;;9.18;3.63;;;20.00;99.90;;;;;;5112976;28;20074;-68
2021/08/16 04:24:35;;;;;;;6.32;3.15;;;20.10;99.90;;;;;;5112888;28;20114;-68
2021/08/16 04:27:01;;;;;;;6.00;3.05;;;20.10;99.90;;;;;;5112984;28;20540;-67
2021/08/16 04:29:26;;;;;;;14.15;3.85;;;20.10;99.90;;;;;;5112969;28;20039;-68
2021/08/16 04:31:52;;;;;;;8.27;3.05;;;20.20;99.90;;;;;;5113007;28;20483;-68
2021/08/16 04:34:18;;;;;;;7.22;2.88;;;20.20;99.90;;;;;;5112773;28;20520;-68
2021/08/16 04:36:44;;;;;;;4.68;3.35;;;20.40;99.90;;;;;;5112546;28;20032;-67
2021/08/16 04:39:09;;;;;;;7.78;2.88;;;20.50;99.90;;;;;;5112855;28;20031;-69
2021/08/16 04:41:35;;;;;;;6.90;3.40;;;20.60;99.90;;;;;;5112600;28;20030;-68
2021/08/16 04:44:01;;;;;;;6.80;3.05;;;20.70;99.90;;;;;;5112459;28;20074;-68
2021/08/16 04:46:26;;;;;;;8.73;3.40;;;20.80;99.90;;;;;;5112512;28;20027;-68
2021/08/16 04:48:52;;;;;;;5.38;3.38;;;20.80;99.90;;;;;;5112295;28;20031;-69
2021/08/16 04:51:18;;;;;;;9.82;3.83;;;20.90;99.90;;;;;;5112436;28;20023;-68
2021/08/16 04:53:43;;;;;;;10.13;3.20;;;21.00;99.90;;;;;;5112235;28;20150;-68
2021/08/16 04:56:09;;;;;;;7.30;3.00;;;21.10;99.90;;;;;;5112370;28;20399;-68
2021/08/16 04:58:34;;;;;;;14.80;3.92;;;21.20;99.90;;;;;;5112215;28;20042;-67
2021/08/16 05:01:00;;;;;;;7.93;3.45;;;21.30;99.90;;;;;;5112406;28;20016;-68
2021/08/16 05:03:26;;;;;;;6.07;3.22;;;21.50;99.90;;;;;;5112251;28;20509;-67
2021/08/16 05:05:54;;;;;;;5.63;3.10;;;21.80;99.90;;;;;;5111256;28;20031;-68
2021/08/16 05:08:20;;;;;;;7.32;3.92;;;22.00;99.90;;;;;;5112298;28;20024;-68
2021/08/16 05:10:46;;;;;;;5.13;3.28;;;22.20;99.90;;;;;;5111953;28;20026;-68
2021/08/16 05:13:12;;;;;;;6.93;3.15;;;22.20;99.90;;;;;;5112117;28;20031;-67
2021/08/16 05:15:42;;;;;;;13.27;3.83;;;22.20;99.90;;;;;;5111951;28;20042;-69
2021/08/16 05:18:09;;;;;;;8.82;3.75;;;22.40;99.90;;;;;;5111984;28;20183;-68
2021/08/16 05:20:37;;;;;;;19.27;4.53;;;22.70;99.90;;;;;;5111795;28;20023;-68
2021/08/16 05:23:03;;;;;;;8.20;4.40;;;22.90;99.90;;;;;;5111836;28;20042;-68
2021/08/16 05:25:29;;;;;;;6.07;3.80;;;23.30;99.90;;;;;;5111640;28;20369;-69
2021/08/16 05:27:54;;;;;;;14.55;4.15;;;23.70;99.90;;;;;;5111679;28;20057;-68
2021/08/16 05:30:20;;;;;;;13.45;4.18;;;23.90;99.20;;;;;;5111730;28;20046;-68
2021/08/16 05:32:46;;;;;;;8.25;4.18;;;24.00;98.80;;;;;;5111478;28;20031;-69
2021/08/16 05:35:12;;;;;;;6.22;4.43;;;24.10;98.50;;;;;;5111672;28;20016;-68
2021/08/16 05:37:38;;;;;;;12.85;4.18;;;24.30;98.20;;;;;;5111536;28;20102;-69
2021/08/16 05:40:04;;;;;;;12.65;3.92;;;24.30;98.50;;;;;;5111560;28;20098;-68
2021/08/16 05:42:30;;;;;;;13.70;3.88;;;24.30;98.90;;;;;;5111561;28;20562;-69
2021/08/16 05:44:55;;;;;;;11.95;4.28;;;24.40;98.20;;;;;;5111326;28;20077;-69
2021/08/16 05:47:21;;;;;;;10.15;3.17;;;24.50;97.40;;;;;;5111374;28;20539;-68
2021/08/16 05:49:47;;;;;;;7.03;3.45;;;24.80;96.40;;;;;;5111507;28;20107;-68
2021/08/16 05:52:12;;;;;;;12.40;3.63;;;25.10;95.90;;;;;;5111291;28;20059;-68
2021/08/16 05:54:38;;;;;;;11.23;2.50;;;25.40;95.40;;;;;;5092841;28;20479;-68
2021/08/16 05:57:04;;;;;;;7.97;3.03;;;25.70;95.00;;;;;;5111345;28;20139;-68
2021/08/16 05:59:29;;;;;;;9.95;2.70;;;26.20;94.30;;;;;;5111375;28;20020;-69
2021/08/16 06:01:55;;;;;;;7.88;3.75;;;26.70;93.30;;;;;;5111051;28;20035;-70
2021/08/16 06:04:20;;;;;;;11.82;4.35;;;27.30;91.90;;;;;;5111168;28;20023;-69
2021/08/16 06:06:46;;;;;;;7.95;3.53;;;27.80;90.00;;;;;;5092678;28;20115;-69
2021/08/16 06:09:12;;;;;;;14.43;4.13;;;28.30;88.10;;;;;;5111058;28;20076;-69
2021/08/16 06:11:38;;;;;;;4.95;3.08;;;28.70;85.80;;;;;;5110947;28;20058;-69
2021/08/16 06:14:03;;;;;;;10.15;3.42;;;29.00;82.80;;;;;;5111023;28;20403;-70
2021/08/16 06:16:29;;;;;;;4.88;2.70;;;29.40;79.90;;;;;;5110890;28;20026;-69
2021/08/16 06:18:54;;;;;;;8.23;3.25;;;29.70;77.80;;;;;;5110700;28;20027;-69
2021/08/16 06:21:21;;;;;;;10.15;3.08;;;30.00;75.30;;;;;;5110785;28;20563;-69
2021/08/16 06:23:47;;;;;;;21.25;3.15;;;30.40;73.40;;;;;;5092487;28;20065;-69
2021/08/16 06:26:12;;;;;;;8.25;3.55;;;30.80;71.30;;;;;;5110828;28;20067;-70
2021/08/16 06:28:38;;;;;;;7.30;2.83;;;31.00;68.00;;;;;;5092355;28;20466;-68
2021/08/16 06:31:04;;;;;;;6.95;2.90;;;30.80;68.40;;;;;;5110914;28;20111;-69
2021/08/16 06:33:30;;;;;;;10.65;3.15;;;31.00;67.20;;;;;;5110772;28;20059;-70
2021/08/16 06:35:56;;;;;;;5.43;3.10;;;31.20;65.80;;;;;;5110648;28;20030;-69
2021/08/16 06:38:23;;;;;;;10.88;3.33;;;31.40;65.00;;;;;;5110781;28;20110;-70
2021/08/16 06:40:53;;;;;;;7.53;2.83;;;31.70;63.30;;;;;;5110605;28;20034;-71
2021/08/16 06:43:20;;;;;;;8.43;3.38;;;31.90;62.80;;;;;;5110481;28;20035;-70
2021/08/16 06:45:46;;;;;;;8.52;3.28;;;32.10;62.20;;;;;;5110600;28;20027;-69
2021/08/16 06:48:13;;;;;;;8.93;3.90;;;32.30;60.40;;;;;;5110533;28;20035;-70
2021/08/16 06:50:39;;;;;;;6.13;3.03;;;32.50;61.00;;;;;;5110458;28;20616;-70
2021/08/16 06:53:06;;;;;;;6.82;2.42;;;32.60;60.70;;;;;;5110412;28;20051;-70
2021/08/16 06:55:31;;;;;;;10.68;3.40;;;32.90;59.30;;;;;;5110424;28;20092;-69
2021/08/16 06:57:57;;;;;;;5.70;2.53;;;32.80;59.20;;;;;;5110540;28;20031;-70
2021/08/16 07:00:23;;;;;;;4.32;2.45;;;32.80;59.00;;;;;;5110521;28;20171;-70
2021/08/16 07:02:49;;;;;;;5.82;2.80;;;32.80;59.00;;;;;;5110175;28;20086;-70
2021/08/16 07:05:14;;;;;;;6.63;2.80;;;33.00;58.80;;;;;;5110336;28;20652;-69
2021/08/16 07:07:40;;;;;;;9.70;3.75;;;33.20;58.30;;;;;;5110497;28;20098;-70
2021/08/16 07:10:07;;;;;;;8.30;3.03;;;33.10;56.60;;;;;;5110486;28;20028;-69
2021/08/16 07:12:33;;;;;;;7.22;2.90;;;33.00;57.40;;;;;;5110529;28;20035;-70
2021/08/16 07:14:58;;;;;;;4.57;2.90;;;33.30;57.20;;;;;;5075029;28;20028;-70
2021/08/16 07:17:25;;;;;;;5.47;3.40;;;33.40;56.70;;;;;;5110294;28;20024;-70
2021/08/16 07:19:51;;;;;;;11.00;3.75;;;33.70;55.30;;;;;;5110222;28;20024;-69
2021/08/16 07:22:16;;;;;;;6.85;3.40;;;33.80;55.10;;;;;;5110084;28;20054;-70
2021/08/16 07:24:43;;;;;;;8.73;3.05;;;33.80;55.40;;;;;;5110170;28;20032;-70
2021/08/16 07:27:08;;;;;;;8.02;3.22;;;34.00;55.50;;;;;;5110296;28;20492;-70
2021/08/16 07:29:34;;;;;;;10.55;3.75;;;34.20;54.50;;;;;;5111777;28;20093;-69
2021/08/16 07:32:00;;;;;;;12.00;3.97;;;34.30;53.60;;;;;;5114009;28;20023;-70
2021/08/16 07:34:25;;;;;;;8.43;3.30;;;34.10;53.90;;;;;;5113986;28;20019;-70
2021/08/16 07:36:54;;;;;;;9.15;3.47;;;34.50;54.50;;;;;;5113703;28;20456;-70
2021/08/16 07:39:22;;;;;;;13.45;3.55;;;34.70;53.40;;;;;;5113895;28;20020;-70
2021/08/16 07:41:48;;;;;;;8.43;3.20;;;34.70;51.70;;;;;;5113957;28;20377;-70
2021/08/16 07:44:17;;;;;;;6.50;3.22;;;35.20;52.20;;;;;;5113753;28;20295;-69
2021/08/16 07:46:43;;;;;;;7.90;3.70;;;35.30;50.50;;;;;;5113851;28;20024;-70
2021/08/16 07:49:08;;;;;;;7.25;3.70;;;35.40;50.50;;;;;;5113696;28;20088;-70
2021/08/16 07:51:34;;;;;;;10.35;3.70;;;35.40;50.80;;;;;;5113752;28;20444;-70
2021/08/16 07:54:00;;;;;;;6.32;3.50;;;35.70;49.80;;;;;;5113397;28;20590;-70
2021/08/16 07:56:26;;;;;;;9.43;3.95;;;36.30;48.90;;;;;;5113659;28;20046;-70
2021/08/16 07:58:52;;;;;;;11.05;3.40;;;36.30;47.80;;;;;;5113619;28;20015;-69
2021/08/16 08:01:17;;;;;;;7.78;3.33;;;36.20;49.40;;;;;;5113537;28;20491;-70
2021/08/16 08:03:43;;;;;;;9.48;4.00;;;36.60;48.60;;;;;;5113477;28;20089;-70
2021/08/16 08:06:09;;;;;;;5.63;3.42;;;36.60;46.60;;;;;;5113381;28;20028;-70
2021/08/16 08:08:35;;;;;;;6.60;3.33;;;36.30;46.10;;;;;;5113257;28;20023;-70
2021/08/16 08:11:01;;;;;;;6.25;3.40;;;36.30;47.10;;;;;;5113489;28;20051;-70
2021/08/16 08:13:27;;;;;;;5.20;2.83;;;36.20;46.50;;;;;;5113315;28;20213;-70
2021/08/16 08:15:52;;;;;;;8.40;3.42;;;36.40;47.70;;;;;;5113190;28;20022;-70
2021/08/16 08:18:18;;;;;;;6.95;3.60;;;36.60;47.00;;;;;;5113200;28;20023;-70
2021/08/16 08:20:43;;;;;;;8.98;3.08;;;36.70;46.50;;;;;;5113061;28;20035;-70
2021/08/16 08:23:09;;;;;;;13.70;3.45;;;37.00;45.80;;;;;;5113085;28;20031;-70
2021/08/16 08:25:35;;;;;;;8.98;3.33;;;37.20;46.00;;;;;;5113090;28;20053;-70
2021/08/16 08:28:01;;;;;;;6.57;3.00;;;37.30;45.60;;;;;;5113073;28;20031;-71
2021/08/16 08:30:27;;;;;;;7.05;3.33;;;37.40;44.60;;;;;;5113166;28;20016;-70
2021/08/16 08:32:55;;;;;;;8.38;4.13;;;37.40;45.60;;;;;;5113047;28;20145;-71
2021/08/16 08:35:21;;;;;;;6.78;2.97;;;37.30;44.60;;;;;;5112918;28;20023;-71
2021/08/16 08:37:48;;;;;;;9.68;3.88;;;37.40;44.70;;;;;;5094729;28;20123;-69
2021/08/16 08:40:14;;;;;;;7.55;3.03;;;37.50;45.10;;;;;;5112708;28;20028;-71
2021/08/16 08:42:39;;;;;;;9.50;3.58;;;37.40;43.60;;;;;;5112713;28;20043;-70
2021/08/16 08:45:07;;;;;;;7.60;3.67;;;37.50;44.00;;;;;;5112482;28;20107;-70
2021/08/16 08:47:34;;;;;;;10.18;3.58;;;37.50;44.30;;;;;;5112674;28;20028;-70
2021/08/16 08:50:01;;;;;;;10.80;4.32;;;37.50;44.00;;;;;;5112495;28;20123;-70
2021/08/16 08:52:26;;;;;;;8.43;3.65;;;37.70;43.80;;;;;;5077552;28;20111;-70
2021/08/16 08:54:58;;;;;;;9.15;3.85;;;37.40;43.40;;;;;;5112277;28;20106;-70
2021/08/16 08:57:27;;;;;;;9.57;3.65;;;37.50;44.30;;;;;;5112064;28;20503;-70
2021/08/16 08:59:53;;;;;;;7.70;3.50;;;37.30;45.60;;;;;;5112411;28;20024;-70
2021/08/16 09:02:20;;;;;;;6.50;3.63;;;37.20;45.50;;;;;;5112446;28;20078;-70
2021/08/16 09:05:05;;;;;;;5.07;3.33;;;37.30;43.60;;;;;;5112353;28;20120;-70
2021/08/16 09:07:35;;;;;;;10.40;4.65;;;36.90;45.70;;;;;;5112431;28;20070;-70
2021/08/16 09:10:04;;;;;;;11.15;4.25;;;36.80;44.60;;;;;;5112147;28;20399;-70
2021/08/16 09:12:35;;;;;;;9.80;4.40;;;36.60;45.10;;;;;;5112311;28;20059;-69
2021/08/16 09:15:03;;;;;;;10.82;4.35;;;36.80;46.60;;;;;;5112221;28;20027;-70
2021/08/16 09:17:33;;;;;;;4.93;4.28;;;37.00;46.70;;;;;;5112220;28;20019;-71
2021/08/16 09:20:12;;;;;;;9.23;4.47;;;36.80;45.50;;;;;;5112092;28;20034;-70
2021/08/16 09:22:38;;;;;;;10.00;4.72;;;36.90;45.90;;;;;;5111928;28;20459;-70
2021/08/16 09:25:09;;;;;;;8.52;4.20;;;37.00;45.70;;;;;;5111923;28;20055;-70
2021/08/16 09:27:48;;;;;;;9.15;4.45;;;37.00;46.60;;;;;;5111865;28;20026;-70
2021/08/16 09:30:15;;;;;;;13.75;5.15;;;37.00;45.30;;;;;;5111989;28;20087;-70
2021/08/16 09:32:43;;;;;;;6.75;4.63;;;37.30;44.30;;;;;;5111795;28;20027;-71
2021/08/16 09:35:12;;;;;;;6.68;4.50;;;37.30;44.20;;;;;;5112116;28;20513;-70
2021/08/16 09:37:40;;;;;;;8.57;4.93;;;37.10;44.70;;;;;;5111910;28;20491;-70
2021/08/16 09:40:11;;;;;;;7.63;4.15;;;36.80;45.00;;;;;;5111809;28;20459;-70
2021/08/16 09:42:41;;;;;;;7.97;4.55;;;36.40;47.20;;;;;;5111451;28;20036;-70
2021/08/16 09:45:08;;;;;;;7.25;4.18;;;36.40;48.10;;;;;;5111634;28;20038;-69
2021/08/16 09:47:44;;;;;;;11.18;4.50;;;36.70;47.80;;;;;;5111528;28;20019;-70
2021/08/16 09:50:12;;;;;;;8.68;4.30;;;37.20;46.70;;;;;;5111334;28;20538;-70
2021/08/16 09:52:39;;;;;;;9.52;4.47;;;37.50;43.90;;;;;;5110597;28;20036;-70
2021/08/16 09:55:05;;;;;;;13.30;4.95;;;37.10;45.20;;;;;;5111342;28;20494;-70
2021/08/16 09:57:32;;;;;;;10.90;4.80;;;37.10;46.70;;;;;;5111630;28;20032;-70
2021/08/16 09:59:58;;;;;;;9.77;4.85;;;36.90;47.20;;;;;;5111246;28;20023;-70
2021/08/16 10:02:26;;;;;;;8.95;4.65;;;37.10;47.60;;;;;;5111138;28;20036;-70
2021/08/16 10:04:57;;;;;;;9.65;5.18;;;37.30;46.20;;;;;;5110983;28;20024;-70
2021/08/16 10:07:30;;;;;;;12.43;4.80;;;37.70;43.80;;;;;;5111269;28;20380;-70
2021/08/16 10:09:59;;;;;;;7.43;4.50;;;37.40;45.50;;;;;;5092699;28;20019;-70
2021/08/16 10:12:26;;;;;;;8.60;5.05;;;37.50;46.00;;;;;;5092764;28;20164;-70
2021/08/16 10:14:53;;;;;;;9.65;4.82;;;37.60;45.80;;;;;;5110821;28;20034;-70
2021/08/16 10:17:23;;;;;;;11.55;4.65;;;37.60;45.40;;;;;;5092579;28;20577;-70
2021/08/16 10:19:51;;;;;;;9.65;4.82;;;37.50;45.80;;;;;;5111315;28;20062;-70
2021/08/16 10:22:17;;;;;;;19.30;5.30;;;37.10;46.50;;;;;;5110866;28;20091;-70
2021/08/16 10:24:43;;;;;;;7.43;5.13;;;36.30;46.20;;;;;;5110734;28;20036;-69
2021/08/16 10:27:10;;;;;;;8.52;5.15;;;36.20;48.20;;;;;;5110863;28;20032;-69
2021/08/16 10:29:39;;;;;;;10.18;5.32;;;35.70;47.50;;;;;;5110781;28;20020;-70
2021/08/16 10:32:16;;;;;;;14.50;5.78;;;35.20;49.30;;;;;;5111282;28;20027;-69
2021/08/16 10:34:42;;;;;;;6.75;5.65;;;34.70;52.20;;;;;;5110517;28;20038;-70
2021/08/16 10:37:09;;;;;;;16.50;6.15;;;34.30;52.20;;;;;;5110732;28;20024;-70
2021/08/16 10:39:41;;;;;;;11.18;5.80;;;34.20;54.10;;;;;;5110727;28;20056;-69
2021/08/16 10:42:15;;;;;;;9.18;5.10;;;34.10;53.90;;;;;;5110927;28;20368;-69
2021/08/16 10:44:42;;;;;;;8.93;5.72;;;34.00;54.80;;;;;;5110435;28;20039;-69
2021/08/16 10:47:10;;;;;;;10.75;5.90;;;34.00;54.10;;;;;;5110573;28;20054;-69
2021/08/16 10:49:40;;;;;;;8.45;5.43;;;33.80;53.90;;;;;;5110624;28;20093;-69
2021/08/16 10:52:20;;;;;;;10.63;5.65;;;33.70;53.00;;;;;;5110566;28;20035;-70
2021/08/16 10:54:46;;;;;;;16.73;6.60;;;33.20;55.30;;;;;;5110458;28;20035;-69
2021/08/16 10:57:12;;;;;;;8.02;5.38;;;33.00;56.30;;;;;;5110559;28;20024;-69
2021/08/16 10:59:38;;;;;;;6.35;5.07;;;32.80;55.40;;;;;;5110589;28;20028;-69
2021/08/16 11:02:04;;;;;;;7.03;5.57;;;32.80;56.90;;;;;;5110421;28;20408;-69
2021/08/16 11:04:31;;;;;;;8.65;5.63;;;32.80;56.60;;;;;;5094103;28;20039;-69
2021/08/16 11:07:03;;;;;;;9.07;5.43;;;32.70;56.10;;;;;;5114469;28;20106;-69
2021/08/16 11:09:31;;;;;;;13.48;6.10;;;32.60;55.80;;;;;;5114487;28;20024;-69
2021/08/16 11:12:03;;;;;;;12.80;6.65;;;32.60;55.30;;;;;;5114554;28;20050;-69
2021/08/16 11:14:30;;;;;;;19.52;5.47;;;32.40;55.70;;;;;;5114497;28;20094;-69
2021/08/16 11:16:56;;;;;;;9.75;5.90;;;32.40;56.40;;;;;;5114377;28;20020;-69
2021/08/16 11:19:23;;;;;;;11.73;5.75;;;32.30;56.50;;;;;;5114595;28;20027;-69
2021/08/16 11:21:56;;;;;;;9.13;6.10;;;32.30;56.60;;;;;;5114438;28;20044;-69
2021/08/16 11:24:32;;;;;;;18.38;6.30;;;32.30;58.40;;;;;;5096323;28;20039;-70
2021/08/16 11:26:58;;;;;;;;;;;32.30;57.00;;;;;;5114541;28;20456;-69
2021/08/16 11:29:25;;;;;;;12.20;5.78;;;32.20;56.30;;;;;;5114600;28;20379;-69
2021/08/16 11:31:52;;;;;;;11.07;5.45;;;32.30;57.30;;;;;;5114050;28;20119;-69
2021/08/16 11:34:18;;;;;;;10.60;6.28;;;32.30;57.80;;;;;;5114025;28;20055;-69
2021/08/16 11:36:44;;;;;;;14.55;6.38;;;32.40;58.20;;;;;;5113814;28;20499;-69
2021/08/16 11:39:09;;;;;;;9.30;5.47;;;32.40;58.10;;;;;;5114266;28;20066;-69
2021/08/16 11:41:35;;;;;;;12.10;5.38;;;32.40;58.40;;;;;;5113892;28;20023;-70
2021/08/16 11:44:14;;;;;;;10.35;6.05;;;32.50;57.50;;;;;;5113729;28;20043;-69
2021/08/16 11:46:40;;;;;;;10.27;6.18;;;32.60;57.80;;;;;;5113435;28;20031;-69
2021/08/16 11:49:08;;;;;;;10.68;5.75;;;32.60;58.20;;;;;;5095656;28;20034;-69
2021/08/16 11:51:34;;;;;;;10.75;5.82;;;32.60;56.70;;;;;;5095570;28;20072;-69
2021/08/16 11:54:00;;;;;;;10.85;5.22;;;32.50;56.30;;;;;;5113550;28;20052;-69
2021/08/16 11:56:25;;;;;;;7.05;5.60;;;32.40;56.80;;;;;;5113604;28;20034;-69
2021/08/16 11:58:51;;;;;;;9.70;5.97;;;32.40;57.70;;;;;;5113886;28;20464;-69
2021/08/16 12:01:19;;;;;;;8.82;6.25;;;32.50;57.00;;;;;;5113684;28;20027;-68
2021/08/16 12:03:45;;;;;;;9.43;5.82;;;32.30;56.20;;;;;;5113506;28;20160;-69
2021/08/16 12:06:13;;;;;;;7.55;5.28;;;32.10;56.40;;;;;;5113498;28;20114;-69
2021/08/16 12:08:39;;;;;;;10.65;5.47;;;32.20;57.70;;;;;;5094878;28;20023;-69
2021/08/16 12:11:17;;;;;;;8.57;6.07;;;32.20;57.90;;;;;;5113669;28;20034;-69
2021/08/16 12:13:43;;;;;;;10.43;5.32;;;32.30;58.00;;;;;;5113367;28;20076;-69
2021/08/16 12:16:14;;;;;;;7.70;5.07;;;32.30;56.80;;;;;;5112695;28;20106;-69
2021/08/16 12:18:39;;;;;;;15.85;10.88;;;32.30;56.50;;;;;;5113043;28;20576;-70
2021/08/16 12:21:05;;;;;;;11.98;6.60;;;32.40;58.20;;;;;;5094964;28;20066;-70
2021/08/16 12:23:35;;;;;;;7.90;5.75;;;32.40;57.20;;;;;;5113425;28;20032;-70
2021/08/16 12:26:06;;;;;;;9.82;5.10;;;32.50;57.40;;;;;;5113029;28;20031;-70
2021/08/16 12:28:49;;;;;;;10.43;4.93;;;32.60;57.20;;;;;;5112961;28;20122;-69
2021/08/16 12:31:21;;;;;;;10.65;4.93;;;32.70;56.50;;;;;;5112881;28;20032;-70
2021/08/16 12:34:01;;;;;;;9.02;4.93;;;32.70;55.70;;;;;;5113149;28;20110;-70
2021/08/16 12:36:30;;;;;;;9.63;5.43;;;32.70;55.40;;;;;;5112838;28;20028;-70
2021/08/16 12:38:58;;;;;;;7.85;4.93;;;32.70;55.80;;;;;;5112716;28;20026;-70
2021/08/16 12:41:25;;;;;;;7.43;5.10;;;32.80;56.40;;;;;;5112713;28;20059;-70
2021/08/16 12:43:52;;;;;;;9.40;5.15;;;32.80;56.20;;;;;;5112917;28;20050;-69
2021/08/16 12:46:35;;;;;;;11.35;5.68;;;32.80;56.90;;;;;;5112589;28;20095;-70
2021/08/16 12:49:03;;;;;;;9.45;5.53;;;32.80;56.00;;;;;;5112676;28;20052;-70
2021/08/16 12:51:30;;;;;;;7.85;5.70;;;32.80;55.80;;;;;;5112489;28;20043;-69
2021/08/16 12:53:57;;;;;;;7.03;5.22;;;32.60;54.80;;;;;;5112502;28;20040;-70